| time (UTC) | temp F | wind direction | speed MPH | gust MPH | rain 1hr in | rain 24hr in | rain mn in | humidity % | barometer mb |
| 20260504034411 | 44 | 171 | 0.0 | 1.0 | 0.00 | 0.00 | 0.00 | 74 | 1016.1 |
| 20260504033908 | 44 | 171 | 0.0 | 0.0 | 0.00 | 0.00 | 0.00 | 73 | 1016.1 |
| 20260504033406 | 44 | 169 | 0.0 | 0.0 | 0.00 | 0.00 | 0.00 | 73 | 1016.1 |
| 20260504032903 | 45 | 171 | 0.0 | 0.0 | 0.00 | 0.00 | 0.00 | 72 | 1016.1 |
| 20260504032359 | 45 | 171 | 0.0 | 0.0 | 0.00 | 0.00 | 0.00 | 71 | 1016.0 |
| 20260504031856 | 45 | 171 | 0.0 | 0.0 | 0.00 | 0.00 | 0.00 | 71 | 1016.2 |
| 20260504031353 | 45 | 171 | 0.0 | 0.0 | 0.00 | 0.00 | 0.00 | 70 | 1016.1 |
| 20260504030849 | 46 | 179 | 1.0 | 1.0 | 0.00 | 0.00 | 0.00 | 69 | 1016.3 |
| 20260504030347 | 46 | 171 | 0.0 | 0.0 | 0.00 | 0.00 | 0.00 | 68 | 1016.4 |
| 20260504025843 | 46 | 171 | 0.0 | 0.0 | 0.00 | 0.00 | 0.00 | 68 | 1016.2 |
| 20260504025340 | 46 | 171 | 0.0 | 0.0 | 0.00 | 0.00 | 0.00 | 67 | 1016.2 |
| 20260504024837 | 47 | 166 | 0.0 | 1.0 | 0.00 | 0.00 | 0.00 | 67 | 1016.2 |
| 20260504024333 | 47 | 171 | 0.0 | 0.0 | 0.00 | 0.00 | 0.00 | 66 | 1016.1 |
| 20260504023830 | 47 | 175 | 0.0 | 0.0 | 0.00 | 0.00 | 0.00 | 65 | 1016.3 |
| 20260504023327 | 48 | 176 | 0.0 | 0.0 | 0.00 | 0.00 | 0.00 | 64 | 1016.1 |
| 20260504022822 | 48 | 174 | 0.0 | 0.0 | 0.00 | 0.00 | 0.00 | 63 | 1016.4 |
| 20260504022320 | 48 | 174 | 0.0 | 0.0 | 0.00 | 0.00 | 0.00 | 62 | 1016.3 |
| 20260504021816 | 48 | 174 | 0.0 | 0.0 | 0.00 | 0.00 | 0.00 | 61 | 1016.4 |
| 20260504021314 | 48 | 176 | 0.0 | 0.0 | 0.00 | 0.00 | 0.00 | 61 | 1016.4 |
| 20260504020810 | 49 | 176 | 0.0 | 0.0 | 0.00 | 0.00 | 0.00 | 60 | 1016.4 |
| 20260504020307 | 49 | 176 | 0.0 | 0.0 | 0.00 | 0.00 | 0.00 | 59 | 1016.5 |
| 20260504015803 | 50 | 176 | 0.0 | 0.0 | 0.00 | 0.00 | 0.00 | 58 | 1016.5 |
| 20260504015259 | 50 | 176 | 0.0 | 0.0 | 0.00 | 0.00 | 0.00 | 58 | 1016.5 |
| 20260504014755 | 50 | 163 | 0.0 | 0.0 | 0.00 | 0.00 | 0.00 | 56 | 1016.3 |
| 20260504014252 | 50 | 163 | 0.0 | 0.0 | 0.00 | 0.00 | 0.00 | 55 | 1016.2 |
| 20260504013750 | 51 | 163 | 0.0 | 0.0 | 0.00 | 0.00 | 0.00 | 53 | 1016.3 |
| 20260504013247 | 51 | 163 | 0.0 | 0.0 | 0.00 | 0.00 | 0.00 | 53 | 1016.5 |
| 20260504012743 | 52 | 162 | 0.0 | 0.0 | 0.00 | 0.00 | 0.00 | 53 | 1016.1 |
| 20260504012241 | 52 | 163 | 0.0 | 0.0 | 0.00 | 0.00 | 0.00 | 51 | 1016.3 |
| 20260504011738 | 52 | 158 | 1.0 | 1.0 | 0.00 | 0.00 | 0.00 | 50 | 1016.1 |
| 20260504011235 | 52 | 170 | 1.0 | 1.0 | 0.00 | 0.00 | 0.00 | 50 | 1016.0 |
| 20260504010731 | 52 | 170 | 0.0 | 1.0 | 0.00 | 0.00 | 0.00 | 51 | 1016.1 |
| 20260504010226 | 53 | 170 | 0.0 | 0.0 | 0.00 | 0.00 | 0.00 | 50 | 1016.3 |
| 20260504005724 | 53 | 171 | 0.0 | 0.0 | 0.00 | 0.00 | 0.00 | 49 | 1016.1 |
| 20260504005221 | 53 | 170 | 0.0 | 1.0 | 0.00 | 0.00 | 0.00 | 49 | 1016.2 |
| 20260504004718 | 54 | 178 | 0.0 | 0.0 | 0.00 | 0.00 | 0.00 | 47 | 1016.1 |
| 20260504004215 | 55 | 174 | 0.0 | 0.0 | 0.00 | 0.00 | 0.00 | 46 | 1016.1 |
| 20260504003712 | 55 | 188 | 1.0 | 1.0 | 0.00 | 0.00 | 0.00 | 45 | 1016.1 |
| 20260504003209 | 55 | 181 | 1.0 | 1.0 | 0.00 | 0.00 | 0.00 | 44 | 1016.1 |
| 20260504002705 | 56 | 187 | 1.0 | 2.0 | 0.00 | 0.00 | 0.00 | 43 | 1016.1 |
| 20260504002203 | 56 | 172 | 2.0 | 3.0 | 0.00 | 0.00 | 0.00 | 42 | 1016.2 |
| 20260504001701 | 56 | 170 | 1.0 | 1.0 | 0.00 | 0.00 | 0.00 | 42 | 1015.9 |
| 20260504001156 | 56 | 184 | 2.0 | 2.0 | 0.00 | 0.00 | 0.00 | 41 | 1015.9 |
| 20260504000653 | 57 | 161 | 0.0 | 1.0 | 0.00 | 0.00 | 0.00 | 41 | 1016.1 |
| 20260504000151 | 57 | 175 | 0.0 | 1.0 | 0.00 | 0.00 | 0.00 | 41 | 1016.0 |
| 20260503235649 | 57 | 193 | 2.0 | 2.0 | 0.00 | 0.00 | 0.00 | 40 | 1016.0 |
| 20260503235145 | 57 | 309 | 0.0 | 0.0 | 0.00 | 0.00 | 0.00 | 40 | 1016.0 |
| 20260503234644 | 58 | 181 | 2.0 | 2.0 | 0.00 | 0.00 | 0.00 | 39 | 1016.0 |
| 20260503234141 | 58 | 181 | 2.0 | 5.0 | 0.00 | 0.00 | 0.00 | 39 | 1016.3 |
| 20260503233638 | 58 | 194 | 1.0 | 1.0 | 0.00 | 0.00 | 0.00 | 38 | 1016.1 |
| 20260503233134 | 58 | 197 | 3.0 | 3.0 | 0.00 | 0.00 | 0.00 | 38 | 1016.1 |
| 20260503232631 | 58 | 149 | 1.0 | 1.0 | 0.00 | 0.00 | 0.00 | 38 | 1016.1 |
| 20260503232128 | 59 | 8 | 5.0 | 6.0 | 0.00 | 0.00 | 0.00 | 37 | 1016.2 |
| 20260503231626 | 59 | 239 | 2.0 | 2.0 | 0.00 | 0.00 | 0.00 | 38 | 1016.2 |
| 20260503231122 | 59 | 257 | 3.0 | 6.0 | 0.00 | 0.00 | 0.00 | 37 | 1016.4 |
| 20260503230619 | 59 | 221 | 4.0 | 6.0 | 0.00 | 0.00 | 0.00 | 37 | 1016.4 |
| 20260503230116 | 60 | 206 | 2.0 | 2.0 | 0.00 | 0.00 | 0.00 | 37 | 1016.2 |
| 20260503225614 | 60 | 300 | 3.0 | 7.0 | 0.00 | 0.00 | 0.00 | 36 | 1016.2 |
| 20260503225113 | 60 | 284 | 2.0 | 2.0 | 0.00 | 0.00 | 0.00 | 36 | 1016.0 |
| 20260503224611 | 60 | 260 | 4.0 | 7.0 | 0.00 | 0.00 | 0.00 | 36 | 1016.2 |
| 20260503224109 | 61 | 184 | 1.0 | 1.0 | 0.00 | 0.00 | 0.00 | 37 | 1016.2 |
| 20260503223607 | 61 | 166 | 0.0 | 1.0 | 0.00 | 0.00 | 0.00 | 37 | 1016.1 |
| 20260503223102 | 60 | 253 | 3.0 | 5.0 | 0.00 | 0.00 | 0.00 | 36 | 1016.3 |
| 20260503222600 | 60 | 195 | 2.0 | 2.0 | 0.00 | 0.00 | 0.00 | 36 | 1016.5 |
| 20260503222058 | 61 | 219 | 3.0 | 5.0 | 0.00 | 0.00 | 0.00 | 35 | 1016.2 |
| 20260503221556 | 61 | 183 | 2.0 | 3.0 | 0.00 | 0.00 | 0.00 | 35 | 1016.5 |
| 20260503221053 | 60 | 274 | 5.0 | 7.0 | 0.00 | 0.00 | 0.00 | 35 | 1016.3 |
| 20260503220549 | 60 | 345 | 5.0 | 7.0 | 0.00 | 0.00 | 0.00 | 35 | 1016.4 |
| 20260503220046 | 60 | 345 | 2.0 | 3.0 | 0.00 | 0.00 | 0.00 | 36 | 1016.3 |
| 20260503215543 | 59 | 245 | 3.0 | 5.0 | 0.00 | 0.00 | 0.00 | 36 | 1016.4 |
| 20260503215040 | 60 | 293 | 5.0 | 13.0 | 0.00 | 0.00 | 0.00 | 35 | 1016.5 |
| 20260503214538 | 61 | 222 | 2.0 | 2.0 | 0.00 | 0.00 | 0.00 | 35 | 1016.3 |
| 20260503214035 | 61 | 11 | 4.0 | 5.0 | 0.00 | 0.00 | 0.00 | 34 | 1016.1 |
| 20260503213533 | 61 | 272 | 3.0 | 5.0 | 0.00 | 0.00 | 0.00 | 36 | 1016.2 |
| 20260503213029 | 61 | 200 | 5.0 | 9.0 | 0.00 | 0.00 | 0.00 | 35 | 1016.1 |
| 20260503212527 | 59 | 208 | 4.0 | 7.0 | 0.00 | 0.00 | 0.00 | 37 | 1016.4 |
| 20260503212024 | 60 | 76 | 2.0 | 3.0 | 0.00 | 0.00 | 0.00 | 36 | 1016.2 |
| 20260503211521 | 60 | 203 | 3.0 | 6.0 | 0.00 | 0.00 | 0.00 | 38 | 1016.3 |
| 20260503211017 | 59 | 271 | 2.0 | 3.0 | 0.00 | 0.00 | 0.00 | 37 | 1016.3 |
| 20260503210514 | 59 | 181 | 1.0 | 2.0 | 0.00 | 0.00 | 0.00 | 37 | 1016.2 |
| 20260503210009 | 59 | 224 | 2.0 | 5.0 | 0.00 | 0.00 | 0.00 | 38 | 1016.4 |
| 20260503205506 | 61 | 209 | 5.0 | 7.0 | 0.00 | 0.00 | 0.00 | 35 | 1016.3 |
| 20260503205002 | 60 | 259 | 3.0 | 3.0 | 0.00 | 0.00 | 0.00 | 35 | 1016.4 |
| 20260503204500 | 60 | 348 | 4.0 | 7.0 | 0.00 | 0.00 | 0.00 | 36 | 1016.5 |
| 20260503203956 | 60 | 259 | 3.0 | 3.0 | 0.00 | 0.00 | 0.00 | 36 | 1016.4 |
| 20260503203454 | 60 | 177 | 3.0 | 6.0 | 0.00 | 0.00 | 0.00 | 36 | 1016.5 |
| 20260503202950 | 60 | 297 | 4.0 | 6.0 | 0.00 | 0.00 | 0.00 | 35 | 1016.9 |
| 20260503202449 | 60 | 260 | 2.0 | 3.0 | 0.00 | 0.00 | 0.00 | 36 | 1016.9 |
| 20260503201947 | 60 | 264 | 5.0 | 7.0 | 0.00 | 0.00 | 0.00 | 36 | 1016.9 |
| 20260503201444 | 60 | 172 | 8.0 | 10.0 | 0.00 | 0.00 | 0.00 | 36 | 1016.8 |
| 20260503200941 | 60 | 173 | 7.0 | 13.0 | 0.00 | 0.00 | 0.00 | 37 | 1016.7 |
| 20260503200437 | 60 | 228 | 3.0 | 5.0 | 0.00 | 0.00 | 0.00 | 36 | 1017.0 |
| 20260503195934 | 60 | 14 | 6.0 | 9.0 | 0.00 | 0.00 | 0.00 | 36 | 1016.9 |
| 20260503195432 | 59 | 220 | 3.0 | 5.0 | 0.00 | 0.00 | 0.00 | 37 | 1017.0 |
| 20260503194928 | 58 | 193 | 1.0 | 1.0 | 0.00 | 0.00 | 0.00 | 38 | 1017.0 |
| 20260503194425 | 58 | 255 | 5.0 | 8.0 | 0.00 | 0.00 | 0.00 | 37 | 1017.4 |
| 20260503193920 | 60 | 244 | 3.0 | 6.0 | 0.00 | 0.00 | 0.00 | 37 | 1017.3 |
| 20260503193416 | 59 | 301 | 11.0 | 15.0 | 0.00 | 0.00 | 0.00 | 36 | 1017.1 |
| 20260503192912 | 60 | 319 | 5.0 | 6.0 | 0.00 | 0.00 | 0.00 | 36 | 1017.4 |
| 20260503192408 | 58 | 181 | 2.0 | 2.0 | 0.00 | 0.00 | 0.00 | 40 | 1017.4 |
| 20260503191904 | 59 | 198 | 5.0 | 6.0 | 0.00 | 0.00 | 0.00 | 38 | 1017.7 |
| 20260503191401 | 59 | 23 | 4.0 | 7.0 | 0.00 | 0.00 | 0.00 | 38 | 1017.6 |
| 20260503190858 | 61 | 312 | 4.0 | 8.0 | 0.00 | 0.00 | 0.00 | 37 | 1017.8 |
| 20260503190355 | 61 | 253 | 6.0 | 9.0 | 0.00 | 0.00 | 0.00 | 35 | 1017.7 |
| 20260503185852 | 60 | 322 | 5.0 | 6.0 | 0.00 | 0.00 | 0.00 | 36 | 1017.9 |
| 20260503185348 | 59 | 323 | 5.0 | 6.0 | 0.00 | 0.00 | 0.00 | 37 | 1018.0 |
| 20260503184848 | 58 | 203 | 1.0 | 1.0 | 0.00 | 0.00 | 0.00 | 39 | 1017.9 |
| 20260503184344 | 59 | 338 | 3.0 | 3.0 | 0.00 | 0.00 | 0.00 | 39 | 1018.0 |
| 20260503183840 | 59 | 357 | 5.0 | 6.0 | 0.00 | 0.00 | 0.00 | 37 | 1018.2 |
| 20260503183338 | 58 | 272 | 2.0 | 2.0 | 0.00 | 0.00 | 0.00 | 38 | 1018.3 |
| 20260503182835 | 59 | 303 | 3.0 | 6.0 | 0.00 | 0.00 | 0.00 | 38 | 1018.5 |
| 20260503182334 | 59 | 315 | 6.0 | 8.0 | 0.00 | 0.00 | 0.00 | 37 | 1018.0 |
| 20260503181831 | 59 | 227 | 2.0 | 3.0 | 0.00 | 0.00 | 0.00 | 38 | 1018.4 |
| 20260503181328 | 57 | 266 | 2.0 | 2.0 | 0.00 | 0.00 | 0.00 | 38 | 1018.2 |
| 20260503180824 | 56 | 301 | 9.0 | 11.0 | 0.00 | 0.00 | 0.00 | 39 | 1018.5 |
| 20260503180322 | 57 | 267 | 4.0 | 6.0 | 0.00 | 0.00 | 0.00 | 39 | 1018.4 |
| 20260503175818 | 58 | 164 | 2.0 | 3.0 | 0.00 | 0.00 | 0.00 | 40 | 1018.4 |
| 20260503175316 | 57 | 269 | 3.0 | 6.0 | 0.00 | 0.00 | 0.00 | 41 | 1018.6 |
| 20260503174812 | 57 | 198 | 1.0 | 3.0 | 0.00 | 0.00 | 0.00 | 40 | 1018.6 |
| 20260503174310 | 59 | 244 | 6.0 | 8.0 | 0.00 | 0.00 | 0.00 | 38 | 1018.5 |
| 20260503173806 | 57 | 211 | 3.0 | 5.0 | 0.00 | 0.00 | 0.00 | 42 | 1018.6 |
| 20260503173301 | 57 | 253 | 3.0 | 5.0 | 0.00 | 0.00 | 0.00 | 38 | 1018.9 |
| 20260503172758 | 57 | 269 | 11.0 | 15.0 | 0.00 | 0.00 | 0.00 | 39 | 1018.6 |
| 20260503172256 | 57 | 295 | 5.0 | 6.0 | 0.00 | 0.00 | 0.00 | 38 | 1018.9 |
| 20260503171752 | 58 | 170 | 4.0 | 5.0 | 0.00 | 0.00 | 0.00 | 38 | 1018.9 |
| 20260503171249 | 57 | 217 | 2.0 | 3.0 | 0.00 | 0.00 | 0.00 | 39 | 1019.1 |
| 20260503170746 | 57 | 201 | 1.0 | 1.0 | 0.00 | 0.00 | 0.00 | 40 | 1019.3 |
| 20260503170243 | 57 | 264 | 3.0 | 3.0 | 0.00 | 0.00 | 0.00 | 39 | 1019.1 |
| 20260503160205 | 54 | 302 | 3.0 | 3.0 | 0.00 | 0.00 | 0.00 | 39 | 1019.8 |
| 20260503150629 | 51 | 249 | 5.0 | 6.0 | 0.00 | 0.00 | 0.00 | 43 | 1020.5 |
| 20260503150125 | 51 | 326 | 5.0 | 6.0 | 0.00 | 0.00 | 0.00 | 42 | 1020.2 |
| 20260503131019 | 45 | 287 | 3.0 | 3.0 | 0.00 | 0.00 | 0.00 | 63 | 1020.5 |
| 20260503130516 | 45 | 190 | 1.0 | 1.0 | 0.00 | 0.00 | 0.00 | 65 | 1020.6 |
| 20260503110413 | 32 | 175 | 0.0 | 0.0 | 0.00 | 0.00 | 0.00 | 90 | 1019.5 |
| 20260503090303 | 33 | 175 | 0.0 | 0.0 | 0.00 | 0.00 | 0.00 | 88 | 1018.9 |
| 20260503081237 | 35 | 175 | 0.0 | 0.0 | 0.00 | 0.00 | 0.00 | 87 | 1018.9 |
| 20260503080732 | 35 | 175 | 0.0 | 0.0 | 0.00 | 0.00 | 0.00 | 87 | 1018.9 |
| 20260503080230 | 35 | 178 | 0.0 | 0.0 | 0.00 | 0.00 | 0.00 | 87 | 1018.8 |
| 20260503072706 | 35 | 175 | 0.0 | 0.0 | 0.00 | 0.00 | 0.00 | 87 | 1019.1 |
| 20260503072203 | 35 | 175 | 0.0 | 0.0 | 0.00 | 0.00 | 0.00 | 87 | 1018.8 |
| 20260503071700 | 35 | 167 | 0.0 | 0.0 | 0.00 | 0.00 | 0.00 | 88 | 1018.8 |
| 20260503071156 | 35 | 162 | 0.0 | 1.0 | 0.00 | 0.00 | 0.00 | 88 | 1018.8 |
| 20260503070653 | 35 | 164 | 0.0 | 0.0 | 0.00 | 0.00 | 0.00 | 88 | 1018.7 |
| 20260503070152 | 35 | 175 | 0.0 | 0.0 | 0.00 | 0.00 | 0.00 | 88 | 1018.7 |
| 20260503060115 | 35 | 175 | 0.0 | 0.0 | 0.00 | 0.00 | 0.00 | 87 | 1018.9 |
| 20260503055107 | 35 | 175 | 0.0 | 0.0 | 0.00 | 0.00 | 0.00 | 87 | 1018.7 |
| 20260503054603 | 35 | 175 | 0.0 | 0.0 | 0.00 | 0.00 | 0.00 | 87 | 1018.8 |
| 20260503054100 | 35 | 175 | 0.0 | 1.0 | 0.00 | 0.00 | 0.00 | 87 | 1018.8 |
| 20260503053558 | 35 | 175 | 0.0 | 0.0 | 0.00 | 0.00 | 0.00 | 87 | 1019.1 |
| 20260503053056 | 35 | 175 | 0.0 | 0.0 | 0.00 | 0.00 | 0.00 | 87 | 1019.1 |
| 20260503052552 | 35 | 170 | 0.0 | 0.0 | 0.00 | 0.00 | 0.00 | 87 | 1018.8 |
| 20260503052049 | 35 | 167 | 0.0 | 0.0 | 0.00 | 0.00 | 0.00 | 87 | 1018.9 |
| 20260503051544 | 35 | 167 | 0.0 | 0.0 | 0.00 | 0.00 | 0.00 | 87 | 1019.2 |
| 20260503051042 | 35 | 165 | 0.0 | 0.0 | 0.00 | 0.00 | 0.00 | 86 | 1019.1 |
| 20260503050538 | 35 | 162 | 0.0 | 0.0 | 0.00 | 0.00 | 0.00 | 86 | 1018.9 |
| 20260503050035 | 35 | 174 | 0.0 | 0.0 | 0.00 | 0.00 | 0.00 | 86 | 1019.2 |
| 20260503045532 | 35 | 167 | 0.0 | 1.0 | 0.00 | 0.00 | 0.00 | 86 | 1019.2 |
| 20260503045030 | 35 | 166 | 0.0 | 1.0 | 0.00 | 0.00 | 0.00 | 86 | 1019.1 |
| 20260503044526 | 35 | 168 | 0.0 | 0.0 | 0.00 | 0.00 | 0.00 | 86 | 1019.1 |
| 20260503044024 | 35 | 154 | 1.0 | 1.0 | 0.00 | 0.00 | 0.00 | 85 | 1019.3 |
| 20260503043520 | 36 | 167 | 0.0 | 0.0 | 0.00 | 0.00 | 0.00 | 85 | 1019.1 |
| 20260503043017 | 36 | 173 | 0.0 | 0.0 | 0.00 | 0.00 | 0.00 | 85 | 1019.1 |
| 20260503042514 | 36 | 168 | 0.0 | 0.0 | 0.00 | 0.00 | 0.00 | 85 | 1019.2 |
| 20260503042009 | 36 | 158 | 1.0 | 1.0 | 0.00 | 0.00 | 0.00 | 84 | 1019.2 |
| 20260503041507 | 37 | 159 | 0.0 | 0.0 | 0.00 | 0.00 | 0.00 | 84 | 1019.1 |
| 20260503041004 | 37 | 163 | 0.0 | 0.0 | 0.00 | 0.00 | 0.00 | 84 | 1019.1 |
| 20260503040502 | 37 | 161 | 0.0 | 0.0 | 0.00 | 0.00 | 0.00 | 84 | 1019.2 |
| 20260503035958 | 37 | 170 | 0.0 | 0.0 | 0.00 | 0.00 | 0.00 | 83 | 1019.2 |
| 20260503035455 | 37 | 170 | 0.0 | 0.0 | 0.00 | 0.00 | 0.00 | 83 | 1019.4 |
| 20260503034953 | 37 | 170 | 0.0 | 0.0 | 0.00 | 0.00 | 0.00 | 83 | 1019.2 |